sensor_id;sensor_type;location;lat;lon;timestamp;temperature;humidity
30308;DHT22;17114;52.314;8.910;2023-05-07T00:02:03;11.10;99.90
30308;DHT22;17114;52.314;8.910;2023-05-07T00:04:30;11.10;99.90
30308;DHT22;17114;52.314;8.910;2023-05-07T00:07:04;11.10;99.90
30308;DHT22;17114;52.314;8.910;2023-05-07T00:09:31;11.10;99.90
30308;DHT22;17114;52.314;8.910;2023-05-07T00:11:58;11.00;99.90
30308;DHT22;17114;52.314;8.910;2023-05-07T00:14:25;11.00;99.90
30308;DHT22;17114;52.314;8.910;2023-05-07T00:16:53;11.00;99.90
30308;DHT22;17114;52.314;8.910;2023-05-07T00:19:21;11.00;99.90
30308;DHT22;17114;52.314;8.910;2023-05-07T00:21:48;10.90;99.90
30308;DHT22;17114;52.314;8.910;2023-05-07T00:24:15;10.90;99.90
30308;DHT22;17114;52.314;8.910;2023-05-07T00:26:43;11.00;99.90
30308;DHT22;17114;52.314;8.910;2023-05-07T00:29:10;11.00;99.90
30308;DHT22;17114;52.314;8.910;2023-05-07T00:31:37;11.00;99.90
30308;DHT22;17114;52.314;8.910;2023-05-07T00:34:05;11.00;99.90
30308;DHT22;17114;52.314;8.910;2023-05-07T00:36:33;11.00;99.90
30308;DHT22;17114;52.314;8.910;2023-05-07T00:39:01;10.90;99.90
30308;DHT22;17114;52.314;8.910;2023-05-07T00:41:30;10.90;99.90
30308;DHT22;17114;52.314;8.910;2023-05-07T00:43:57;10.90;99.90
30308;DHT22;17114;52.314;8.910;2023-05-07T00:46:25;10.90;99.90
30308;DHT22;17114;52.314;8.910;2023-05-07T00:48:53;10.90;99.90
30308;DHT22;17114;52.314;8.910;2023-05-07T00:51:21;10.90;99.90
30308;DHT22;17114;52.314;8.910;2023-05-07T00:53:49;10.90;99.90
30308;DHT22;17114;52.314;8.910;2023-05-07T00:56:16;10.90;99.90
30308;DHT22;17114;52.314;8.910;2023-05-07T00:58:47;10.90;99.90
30308;DHT22;17114;52.314;8.910;2023-05-07T01:01:14;10.90;99.90
30308;DHT22;17114;52.314;8.910;2023-05-07T01:03:43;10.90;99.90
30308;DHT22;17114;52.314;8.910;2023-05-07T01:06:12;10.80;99.90
30308;DHT22;17114;52.314;8.910;2023-05-07T01:08:41;10.80;99.90
30308;DHT22;17114;52.314;8.910;2023-05-07T01:11:09;10.80;99.90
30308;DHT22;17114;52.314;8.910;2023-05-07T01:13:37;10.70;99.90
30308;DHT22;17114;52.314;8.910;2023-05-07T01:16:05;10.70;99.90
30308;DHT22;17114;52.314;8.910;2023-05-07T01:18:32;10.60;99.90
30308;DHT22;17114;52.314;8.910;2023-05-07T01:21:02;10.60;99.90
30308;DHT22;17114;52.314;8.910;2023-05-07T01:23:30;10.60;99.90
30308;DHT22;17114;52.314;8.910;2023-05-07T01:25:58;10.60;99.90
30308;DHT22;17114;52.314;8.910;2023-05-07T01:28:25;10.60;99.90
30308;DHT22;17114;52.314;8.910;2023-05-07T01:30:56;10.60;99.90
30308;DHT22;17114;52.314;8.910;2023-05-07T01:33:25;10.50;99.90
30308;DHT22;17114;52.314;8.910;2023-05-07T01:35:53;10.50;99.90
30308;DHT22;17114;52.314;8.910;2023-05-07T01:38:22;10.50;99.90
30308;DHT22;17114;52.314;8.910;2023-05-07T01:40:50;10.50;99.90
30308;DHT22;17114;52.314;8.910;2023-05-07T01:43:17;10.50;99.90
30308;DHT22;17114;52.314;8.910;2023-05-07T01:45:46;10.50;99.90
30308;DHT22;17114;52.314;8.910;2023-05-07T01:48:14;10.40;99.90
30308;DHT22;17114;52.314;8.910;2023-05-07T01:50:43;10.40;99.90
30308;DHT22;17114;52.314;8.910;2023-05-07T01:53:11;10.40;99.90
30308;DHT22;17114;52.314;8.910;2023-05-07T01:55:38;10.40;99.90
30308;DHT22;17114;52.314;8.910;2023-05-07T01:58:05;10.40;99.90
30308;DHT22;17114;52.314;8.910;2023-05-07T02:00:32;10.40;99.90
30308;DHT22;17114;52.314;8.910;2023-05-07T02:02:59;10.40;99.90
30308;DHT22;17114;52.314;8.910;2023-05-07T02:05:27;10.40;99.90
30308;DHT22;17114;52.314;8.910;2023-05-07T02:07:54;10.40;99.90
30308;DHT22;17114;52.314;8.910;2023-05-07T02:10:21;10.40;99.90
30308;DHT22;17114;52.314;8.910;2023-05-07T02:12:48;10.40;99.90
30308;DHT22;17114;52.314;8.910;2023-05-07T02:15:16;10.30;99.90
30308;DHT22;17114;52.314;8.910;2023-05-07T02:18:00;10.30;99.90
30308;DHT22;17114;52.314;8.910;2023-05-07T02:20:28;10.30;99.90
30308;DHT22;17114;52.314;8.910;2023-05-07T02:22:55;10.30;99.90
30308;DHT22;17114;52.314;8.910;2023-05-07T02:25:22;10.30;99.90
30308;DHT22;17114;52.314;8.910;2023-05-07T02:27:49;10.30;99.90
30308;DHT22;17114;52.314;8.910;2023-05-07T02:30:16;10.30;99.90
30308;DHT22;17114;52.314;8.910;2023-05-07T02:32:44;10.30;99.90
30308;DHT22;17114;52.314;8.910;2023-05-07T02:35:11;10.30;99.90
30308;DHT22;17114;52.314;8.910;2023-05-07T02:37:38;10.30;99.90
30308;DHT22;17114;52.314;8.910;2023-05-07T02:40:06;10.30;99.90
30308;DHT22;17114;52.314;8.910;2023-05-07T02:42:34;10.20;99.90
30308;DHT22;17114;52.314;8.910;2023-05-07T02:45:01;10.20;99.90
30308;DHT22;17114;52.314;8.910;2023-05-07T02:47:28;10.20;99.90
30308;DHT22;17114;52.314;8.910;2023-05-07T02:49:55;10.20;99.90
30308;DHT22;17114;52.314;8.910;2023-05-07T02:52:22;10.20;99.90
30308;DHT22;17114;52.314;8.910;2023-05-07T02:54:49;10.20;99.90
30308;DHT22;17114;52.314;8.910;2023-05-07T02:57:17;10.20;99.90
30308;DHT22;17114;52.314;8.910;2023-05-07T02:59:45;10.20;99.90
30308;DHT22;17114;52.314;8.910;2023-05-07T03:02:13;10.20;99.90
30308;DHT22;17114;52.314;8.910;2023-05-07T03:04:40;10.20;99.90
30308;DHT22;17114;52.314;8.910;2023-05-07T03:07:07;10.20;99.90
30308;DHT22;17114;52.314;8.910;2023-05-07T03:09:35;10.10;99.90
30308;DHT22;17114;52.314;8.910;2023-05-07T03:12:01;10.10;99.90
30308;DHT22;17114;52.314;8.910;2023-05-07T03:14:28;10.10;99.90
30308;DHT22;17114;52.314;8.910;2023-05-07T03:16:55;10.10;99.90
30308;DHT22;17114;52.314;8.910;2023-05-07T03:19:23;10.10;99.90
30308;DHT22;17114;52.314;8.910;2023-05-07T03:21:50;10.00;99.90
30308;DHT22;17114;52.314;8.910;2023-05-07T03:24:17;10.10;99.90
30308;DHT22;17114;52.314;8.910;2023-05-07T03:26:44;10.10;99.90
30308;DHT22;17114;52.314;8.910;2023-05-07T03:29:11;10.10;99.90
30308;DHT22;17114;52.314;8.910;2023-05-07T03:31:38;10.10;99.90
30308;DHT22;17114;52.314;8.910;2023-05-07T03:34:05;10.10;99.90
30308;DHT22;17114;52.314;8.910;2023-05-07T03:36:32;10.10;99.90
30308;DHT22;17114;52.314;8.910;2023-05-07T03:38:59;10.10;99.90
30308;DHT22;17114;52.314;8.910;2023-05-07T03:41:26;10.10;99.90
30308;DHT22;17114;52.314;8.910;2023-05-07T03:43:53;10.10;99.90
30308;DHT22;17114;52.314;8.910;2023-05-07T03:46:20;10.10;99.90
30308;DHT22;17114;52.314;8.910;2023-05-07T03:48:47;10.10;99.90
30308;DHT22;17114;52.314;8.910;2023-05-07T03:51:15;10.10;99.90
30308;DHT22;17114;52.314;8.910;2023-05-07T03:53:42;10.10;99.90
30308;DHT22;17114;52.314;8.910;2023-05-07T03:56:09;10.10;99.90
30308;DHT22;17114;52.314;8.910;2023-05-07T03:58:36;10.10;99.90
30308;DHT22;17114;52.314;8.910;2023-05-07T04:01:03;10.10;99.90
30308;DHT22;17114;52.314;8.910;2023-05-07T04:03:30;10.10;99.90
30308;DHT22;17114;52.314;8.910;2023-05-07T04:05:57;10.10;99.90
30308;DHT22;17114;52.314;8.910;2023-05-07T04:08:24;10.20;99.90
30308;DHT22;17114;52.314;8.910;2023-05-07T04:10:56;10.20;99.90
30308;DHT22;17114;52.314;8.910;2023-05-07T04:13:23;10.20;99.90
30308;DHT22;17114;52.314;8.910;2023-05-07T04:15:52;10.20;99.90
30308;DHT22;17114;52.314;8.910;2023-05-07T04:18:19;10.20;99.90
30308;DHT22;17114;52.314;8.910;2023-05-07T04:20:47;10.20;99.90
30308;DHT22;17114;52.314;8.910;2023-05-07T04:23:16;10.20;99.90
30308;DHT22;17114;52.314;8.910;2023-05-07T04:25:43;10.20;99.90
30308;DHT22;17114;52.314;8.910;2023-05-07T04:28:13;10.20;99.90
30308;DHT22;17114;52.314;8.910;2023-05-07T04:30:40;10.30;99.90
30308;DHT22;17114;52.314;8.910;2023-05-07T04:33:07;10.30;99.90
30308;DHT22;17114;52.314;8.910;2023-05-07T04:35:35;10.30;99.90
30308;DHT22;17114;52.314;8.910;2023-05-07T04:38:02;10.30;99.90
30308;DHT22;17114;52.314;8.910;2023-05-07T04:40:30;10.40;99.90
30308;DHT22;17114;52.314;8.910;2023-05-07T04:42:57;10.30;99.90
30308;DHT22;17114;52.314;8.910;2023-05-07T04:45:24;10.30;99.90
30308;DHT22;17114;52.314;8.910;2023-05-07T04:47:51;10.40;99.90
30308;DHT22;17114;52.314;8.910;2023-05-07T04:50:18;10.30;99.90
30308;DHT22;17114;52.314;8.910;2023-05-07T04:52:46;10.30;99.90
30308;DHT22;17114;52.314;8.910;2023-05-07T04:55:13;10.40;99.90
30308;DHT22;17114;52.314;8.910;2023-05-07T04:57:40;10.40;99.90
30308;DHT22;17114;52.314;8.910;2023-05-07T05:00:08;10.40;99.90
30308;DHT22;17114;52.314;8.910;2023-05-07T05:02:36;10.40;99.90
30308;DHT22;17114;52.314;8.910;2023-05-07T05:05:03;10.40;99.90
30308;DHT22;17114;52.314;8.910;2023-05-07T05:07:31;10.40;99.90
30308;DHT22;17114;52.314;8.910;2023-05-07T05:09:58;10.40;99.90
30308;DHT22;17114;52.314;8.910;2023-05-07T05:12:25;10.50;99.90
30308;DHT22;17114;52.314;8.910;2023-05-07T05:14:52;10.40;99.90
30308;DHT22;17114;52.314;8.910;2023-05-07T05:17:19;10.50;99.90
30308;DHT22;17114;52.314;8.910;2023-05-07T05:19:46;10.50;99.90
30308;DHT22;17114;52.314;8.910;2023-05-07T05:22:13;10.50;99.90
30308;DHT22;17114;52.314;8.910;2023-05-07T05:24:40;10.40;99.90
30308;DHT22;17114;52.314;8.910;2023-05-07T05:27:07;10.40;99.90
30308;DHT22;17114;52.314;8.910;2023-05-07T05:29:35;10.50;99.90
30308;DHT22;17114;52.314;8.910;2023-05-07T05:32:02;10.50;99.90
30308;DHT22;17114;52.314;8.910;2023-05-07T05:34:29;10.50;99.90
30308;DHT22;17114;52.314;8.910;2023-05-07T05:36:56;10.50;99.90
30308;DHT22;17114;52.314;8.910;2023-05-07T05:39:24;10.50;99.90
30308;DHT22;17114;52.314;8.910;2023-05-07T05:41:51;10.50;99.90
30308;DHT22;17114;52.314;8.910;2023-05-07T05:44:18;10.60;99.90
30308;DHT22;17114;52.314;8.910;2023-05-07T05:46:45;10.60;99.90
30308;DHT22;17114;52.314;8.910;2023-05-07T05:49:12;10.60;99.90
30308;DHT22;17114;52.314;8.910;2023-05-07T05:51:39;10.70;99.90
30308;DHT22;17114;52.314;8.910;2023-05-07T05:54:07;10.80;99.90
30308;DHT22;17114;52.314;8.910;2023-05-07T05:56:34;10.80;99.90
30308;DHT22;17114;52.314;8.910;2023-05-07T05:59:01;10.80;99.90
30308;DHT22;17114;52.314;8.910;2023-05-07T06:01:28;10.80;99.90
30308;DHT22;17114;52.314;8.910;2023-05-07T06:03:56;10.80;99.90
30308;DHT22;17114;52.314;8.910;2023-05-07T06:06:23;10.90;99.90
30308;DHT22;17114;52.314;8.910;2023-05-07T06:08:52;10.90;99.90
30308;DHT22;17114;52.314;8.910;2023-05-07T06:11:19;10.90;99.90
30308;DHT22;17114;52.314;8.910;2023-05-07T06:13:46;10.90;99.90
30308;DHT22;17114;52.314;8.910;2023-05-07T06:16:14;10.90;99.90
30308;DHT22;17114;52.314;8.910;2023-05-07T06:18:43;10.90;99.90
30308;DHT22;17114;52.314;8.910;2023-05-07T06:21:10;11.00;99.90
30308;DHT22;17114;52.314;8.910;2023-05-07T06:23:37;11.00;99.90
30308;DHT22;17114;52.314;8.910;2023-05-07T06:26:04;11.10;99.90
30308;DHT22;17114;52.314;8.910;2023-05-07T06:28:31;11.10;99.90
30308;DHT22;17114;52.314;8.910;2023-05-07T06:33:40;11.20;99.90
30308;DHT22;17114;52.314;8.910;2023-05-07T06:36:07;11.30;99.90
30308;DHT22;17114;52.314;8.910;2023-05-07T06:38:34;11.30;99.90
30308;DHT22;17114;52.314;8.910;2023-05-07T06:41:02;11.30;99.90
30308;DHT22;17114;52.314;8.910;2023-05-07T06:43:29;11.40;99.90
30308;DHT22;17114;52.314;8.910;2023-05-07T06:45:56;11.40;99.90
30308;DHT22;17114;52.314;8.910;2023-05-07T06:48:23;11.40;99.90
30308;DHT22;17114;52.314;8.910;2023-05-07T06:50:50;11.40;99.90
30308;DHT22;17114;52.314;8.910;2023-05-07T06:53:17;11.40;99.90
30308;DHT22;17114;52.314;8.910;2023-05-07T06:55:44;11.40;99.90
30308;DHT22;17114;52.314;8.910;2023-05-07T06:58:11;11.40;99.90
30308;DHT22;17114;52.314;8.910;2023-05-07T07:00:38;11.50;99.90
30308;DHT22;17114;52.314;8.910;2023-05-07T07:03:06;11.60;99.90
30308;DHT22;17114;52.314;8.910;2023-05-07T07:05:33;11.50;99.90
30308;DHT22;17114;52.314;8.910;2023-05-07T07:08:00;11.60;99.90
30308;DHT22;17114;52.314;8.910;2023-05-07T07:10:27;11.60;99.90
30308;DHT22;17114;52.314;8.910;2023-05-07T07:12:55;11.60;99.90
30308;DHT22;17114;52.314;8.910;2023-05-07T07:15:22;11.60;99.90
30308;DHT22;17114;52.314;8.910;2023-05-07T07:17:51;11.60;99.90
30308;DHT22;17114;52.314;8.910;2023-05-07T07:20:19;11.60;99.90
30308;DHT22;17114;52.314;8.910;2023-05-07T07:22:45;11.60;99.90
30308;DHT22;17114;52.314;8.910;2023-05-07T07:25:13;11.60;99.90
30308;DHT22;17114;52.314;8.910;2023-05-07T07:27:40;11.70;99.90
30308;DHT22;17114;52.314;8.910;2023-05-07T07:30:07;11.70;99.90
30308;DHT22;17114;52.314;8.910;2023-05-07T07:32:35;11.70;99.90
30308;DHT22;17114;52.314;8.910;2023-05-07T07:35:06;11.70;99.90
30308;DHT22;17114;52.314;8.910;2023-05-07T07:37:33;11.70;99.90
30308;DHT22;17114;52.314;8.910;2023-05-07T07:40:00;11.60;99.90
30308;DHT22;17114;52.314;8.910;2023-05-07T07:42:28;11.70;99.90
30308;DHT22;17114;52.314;8.910;2023-05-07T07:44:56;11.70;99.90
30308;DHT22;17114;52.314;8.910;2023-05-07T07:47:24;11.80;99.90
30308;DHT22;17114;52.314;8.910;2023-05-07T07:49:51;11.80;99.90
30308;DHT22;17114;52.314;8.910;2023-05-07T07:52:19;11.90;99.90
30308;DHT22;17114;52.314;8.910;2023-05-07T07:54:46;11.90;99.90
30308;DHT22;17114;52.314;8.910;2023-05-07T07:57:13;11.90;99.90
30308;DHT22;17114;52.314;8.910;2023-05-07T07:59:40;11.90;99.90
30308;DHT22;17114;52.314;8.910;2023-05-07T08:02:09;11.90;99.90
30308;DHT22;17114;52.314;8.910;2023-05-07T08:04:37;11.90;99.90
30308;DHT22;17114;52.314;8.910;2023-05-07T08:07:05;11.80;99.90
30308;DHT22;17114;52.314;8.910;2023-05-07T08:09:32;11.80;99.90
30308;DHT22;17114;52.314;8.910;2023-05-07T08:11:59;11.80;99.90
30308;DHT22;17114;52.314;8.910;2023-05-07T08:14:27;11.90;99.90
30308;DHT22;17114;52.314;8.910;2023-05-07T08:16:57;11.90;99.90
30308;DHT22;17114;52.314;8.910;2023-05-07T08:19:24;12.00;99.90
30308;DHT22;17114;52.314;8.910;2023-05-07T08:21:51;12.10;99.90
30308;DHT22;17114;52.314;8.910;2023-05-07T08:24:18;12.10;99.90
30308;DHT22;17114;52.314;8.910;2023-05-07T08:26:45;12.10;99.90
30308;DHT22;17114;52.314;8.910;2023-05-07T08:29:13;12.10;99.90
30308;DHT22;17114;52.314;8.910;2023-05-07T08:31:40;12.10;99.90
30308;DHT22;17114;52.314;8.910;2023-05-07T08:34:07;12.20;99.90
30308;DHT22;17114;52.314;8.910;2023-05-07T08:36:36;12.10;99.90
30308;DHT22;17114;52.314;8.910;2023-05-07T08:39:03;12.30;99.90
30308;DHT22;17114;52.314;8.910;2023-05-07T08:41:30;12.40;99.90
30308;DHT22;17114;52.314;8.910;2023-05-07T08:43:58;12.40;99.90
30308;DHT22;17114;52.314;8.910;2023-05-07T08:46:31;12.50;99.90
30308;DHT22;17114;52.314;8.910;2023-05-07T08:48:59;12.50;99.90
30308;DHT22;17114;52.314;8.910;2023-05-07T08:51:26;12.50;99.90
30308;DHT22;17114;52.314;8.910;2023-05-07T08:53:53;12.50;99.90
30308;DHT22;17114;52.314;8.910;2023-05-07T08:56:21;12.60;99.90
30308;DHT22;17114;52.314;8.910;2023-05-07T08:58:48;12.60;99.90
30308;DHT22;17114;52.314;8.910;2023-05-07T09:01:17;12.70;99.90
30308;DHT22;17114;52.314;8.910;2023-05-07T09:03:45;12.70;99.90
30308;DHT22;17114;52.314;8.910;2023-05-07T09:06:14;12.70;99.90
30308;DHT22;17114;52.314;8.910;2023-05-07T09:08:49;12.80;99.90
30308;DHT22;17114;52.314;8.910;2023-05-07T09:11:20;12.90;99.90
30308;DHT22;17114;52.314;8.910;2023-05-07T09:13:49;13.00;99.90
30308;DHT22;17114;52.314;8.910;2023-05-07T09:16:21;13.10;99.90
30308;DHT22;17114;52.314;8.910;2023-05-07T09:18:51;13.20;99.90
30308;DHT22;17114;52.314;8.910;2023-05-07T09:21:20;13.50;99.90
30308;DHT22;17114;52.314;8.910;2023-05-07T09:23:52;13.80;99.90
30308;DHT22;17114;52.314;8.910;2023-05-07T09:26:21;14.20;99.90
30308;DHT22;17114;52.314;8.910;2023-05-07T09:28:49;14.40;99.90
30308;DHT22;17114;52.314;8.910;2023-05-07T09:31:16;14.60;99.90
30308;DHT22;17114;52.314;8.910;2023-05-07T09:33:46;14.60;99.90
30308;DHT22;17114;52.314;8.910;2023-05-07T09:36:15;14.60;99.90
30308;DHT22;17114;52.314;8.910;2023-05-07T09:38:42;14.50;99.90
30308;DHT22;17114;52.314;8.910;2023-05-07T09:41:11;14.60;99.90
30308;DHT22;17114;52.314;8.910;2023-05-07T09:43:40;14.80;99.90
30308;DHT22;17114;52.314;8.910;2023-05-07T09:46:15;14.80;99.90
30308;DHT22;17114;52.314;8.910;2023-05-07T09:48:44;14.80;99.90
30308;DHT22;17114;52.314;8.910;2023-05-07T09:51:51;14.70;99.90
30308;DHT22;17114;52.314;8.910;2023-05-07T09:54:11;14.90;99.90
30308;DHT22;17114;52.314;8.910;2023-05-07T09:56:40;15.00;99.90
30308;DHT22;17114;52.314;8.910;2023-05-07T09:59:15;15.20;99.90
30308;DHT22;17114;52.314;8.910;2023-05-07T10:01:44;15.30;99.90
30308;DHT22;17114;52.314;8.910;2023-05-07T10:04:16;15.80;99.90
30308;DHT22;17114;52.314;8.910;2023-05-07T10:06:45;16.00;99.90
30308;DHT22;17114;52.314;8.910;2023-05-07T10:09:13;16.00;99.90
30308;DHT22;17114;52.314;8.910;2023-05-07T10:11:42;16.10;99.90
30308;DHT22;17114;52.314;8.910;2023-05-07T10:14:10;16.10;99.90
30308;DHT22;17114;52.314;8.910;2023-05-07T10:16:38;16.10;99.90
30308;DHT22;17114;52.314;8.910;2023-05-07T10:19:09;16.20;99.90
30308;DHT22;17114;52.314;8.910;2023-05-07T10:21:42;16.50;99.90
30308;DHT22;17114;52.314;8.910;2023-05-07T10:24:19;16.80;99.90
30308;DHT22;17114;52.314;8.910;2023-05-07T10:26:50;17.00;99.90
30308;DHT22;17114;52.314;8.910;2023-05-07T10:29:50;16.80;99.90
30308;DHT22;17114;52.314;8.910;2023-05-07T10:32:30;16.40;99.90
30308;DHT22;17114;52.314;8.910;2023-05-07T10:35:03;16.30;99.90
30308;DHT22;17114;52.314;8.910;2023-05-07T10:37:32;16.40;99.90
30308;DHT22;17114;52.314;8.910;2023-05-07T10:40:01;16.60;99.90
30308;DHT22;17114;52.314;8.910;2023-05-07T10:42:29;16.60;99.90
30308;DHT22;17114;52.314;8.910;2023-05-07T10:44:56;16.70;99.90
30308;DHT22;17114;52.314;8.910;2023-05-07T10:47:24;16.70;99.90
30308;DHT22;17114;52.314;8.910;2023-05-07T10:52:21;16.90;99.90
30308;DHT22;17114;52.314;8.910;2023-05-07T10:57:44;17.30;99.90
30308;DHT22;17114;52.314;8.910;2023-05-07T11:05:31;18.20;99.90
30308;DHT22;17114;52.314;8.910;2023-05-07T11:08:04;18.20;99.90
30308;DHT22;17114;52.314;8.910;2023-05-07T11:10:51;18.10;99.90
30308;DHT22;17114;52.314;8.910;2023-05-07T11:13:40;17.90;99.90
30308;DHT22;17114;52.314;8.910;2023-05-07T11:16:20;17.70;99.90
30308;DHT22;17114;52.314;8.910;2023-05-07T11:18:52;17.30;99.90
30308;DHT22;17114;52.314;8.910;2023-05-07T11:21:40;17.30;99.90
30308;DHT22;17114;52.314;8.910;2023-05-07T11:24:09;17.40;99.90
30308;DHT22;17114;52.314;8.910;2023-05-07T11:26:45;17.40;99.90
30308;DHT22;17114;52.314;8.910;2023-05-07T11:29:16;17.40;99.90
30308;DHT22;17114;52.314;8.910;2023-05-07T11:31:52;17.40;99.90
30308;DHT22;17114;52.314;8.910;2023-05-07T11:34:24;17.60;99.90
30308;DHT22;17114;52.314;8.910;2023-05-07T11:36:52;17.80;99.90
30308;DHT22;17114;52.314;8.910;2023-05-07T11:39:32;17.80;99.90
30308;DHT22;17114;52.314;8.910;2023-05-07T11:42:00;17.80;99.90
30308;DHT22;17114;52.314;8.910;2023-05-07T11:44:44;17.80;99.90
30308;DHT22;17114;52.314;8.910;2023-05-07T11:47:19;17.80;99.90
30308;DHT22;17114;52.314;8.910;2023-05-07T11:49:52;18.10;99.90
30308;DHT22;17114;52.314;8.910;2023-05-07T11:52:21;18.70;99.90
30308;DHT22;17114;52.314;8.910;2023-05-07T11:54:58;19.10;99.90
30308;DHT22;17114;52.314;8.910;2023-05-07T11:57:28;19.20;99.90
30308;DHT22;17114;52.314;8.910;2023-05-07T11:59:56;19.00;99.90
30308;DHT22;17114;52.314;8.910;2023-05-07T12:02:24;18.90;99.90
30308;DHT22;17114;52.314;8.910;2023-05-07T12:04:52;18.90;99.90
30308;DHT22;17114;52.314;8.910;2023-05-07T12:07:20;18.70;99.90
30308;DHT22;17114;52.314;8.910;2023-05-07T12:09:48;18.60;99.90
30308;DHT22;17114;52.314;8.910;2023-05-07T12:12:15;18.60;99.90
30308;DHT22;17114;52.314;8.910;2023-05-07T12:14:45;18.50;99.90
30308;DHT22;17114;52.314;8.910;2023-05-07T12:17:14;18.60;99.90
30308;DHT22;17114;52.314;8.910;2023-05-07T12:19:43;18.80;99.90
30308;DHT22;17114;52.314;8.910;2023-05-07T12:22:25;18.80;99.90
30308;DHT22;17114;52.314;8.910;2023-05-07T12:24:57;18.30;99.90
30308;DHT22;17114;52.314;8.910;2023-05-07T12:27:26;18.30;99.90
30308;DHT22;17114;52.314;8.910;2023-05-07T12:29:54;18.40;99.90
30308;DHT22;17114;52.314;8.910;2023-05-07T12:32:21;18.30;99.90
30308;DHT22;17114;52.314;8.910;2023-05-07T12:34:52;18.60;99.90
30308;DHT22;17114;52.314;8.910;2023-05-07T12:37:25;18.90;99.90
30308;DHT22;17114;52.314;8.910;2023-05-07T12:40:07;18.90;99.90
30308;DHT22;17114;52.314;8.910;2023-05-07T12:42:40;18.90;99.90
30308;DHT22;17114;52.314;8.910;2023-05-07T12:45:13;18.70;99.90
30308;DHT22;17114;52.314;8.910;2023-05-07T12:47:47;18.50;99.90
30308;DHT22;17114;52.314;8.910;2023-05-07T12:50:16;18.10;99.90
30308;DHT22;17114;52.314;8.910;2023-05-07T12:52:45;18.00;99.90
30308;DHT22;17114;52.314;8.910;2023-05-07T12:55:14;18.00;99.90
30308;DHT22;17114;52.314;8.910;2023-05-07T12:57:45;17.80;99.90
30308;DHT22;17114;52.314;8.910;2023-05-07T13:00:13;17.50;99.90
30308;DHT22;17114;52.314;8.910;2023-05-07T13:02:42;17.40;99.90
30308;DHT22;17114;52.314;8.910;2023-05-07T13:05:11;17.50;99.90
30308;DHT22;17114;52.314;8.910;2023-05-07T13:07:39;17.70;99.90
30308;DHT22;17114;52.314;8.910;2023-05-07T13:10:08;18.00;99.90
30308;DHT22;17114;52.314;8.910;2023-05-07T13:12:36;18.10;99.90
30308;DHT22;17114;52.314;8.910;2023-05-07T13:15:03;18.00;99.90
30308;DHT22;17114;52.314;8.910;2023-05-07T13:17:31;17.90;99.90
30308;DHT22;17114;52.314;8.910;2023-05-07T13:19:58;17.70;99.90
30308;DHT22;17114;52.314;8.910;2023-05-07T13:22:25;17.50;99.90
30308;DHT22;17114;52.314;8.910;2023-05-07T13:24:53;17.30;99.90
30308;DHT22;17114;52.314;8.910;2023-05-07T13:27:20;17.20;99.90
30308;DHT22;17114;52.314;8.910;2023-05-07T13:29:48;17.20;99.90
30308;DHT22;17114;52.314;8.910;2023-05-07T13:32:15;17.30;99.90
30308;DHT22;17114;52.314;8.910;2023-05-07T13:34:43;17.50;99.90
30308;DHT22;17114;52.314;8.910;2023-05-07T13:37:10;17.80;99.90
30308;DHT22;17114;52.314;8.910;2023-05-07T13:39:38;18.00;99.90
30308;DHT22;17114;52.314;8.910;2023-05-07T13:42:05;17.90;99.90
30308;DHT22;17114;52.314;8.910;2023-05-07T13:44:32;17.80;99.90
30308;DHT22;17114;52.314;8.910;2023-05-07T13:47:00;17.60;99.90
30308;DHT22;17114;52.314;8.910;2023-05-07T13:49:27;17.50;99.90
30308;DHT22;17114;52.314;8.910;2023-05-07T13:51:55;17.50;99.90
30308;DHT22;17114;52.314;8.910;2023-05-07T13:54:22;17.50;99.90
30308;DHT22;17114;52.314;8.910;2023-05-07T13:56:50;17.40;99.90
30308;DHT22;17114;52.314;8.910;2023-05-07T13:59:17;17.50;99.90
30308;DHT22;17114;52.314;8.910;2023-05-07T14:01:46;17.70;99.90
30308;DHT22;17114;52.314;8.910;2023-05-07T14:04:14;17.70;99.90
30308;DHT22;17114;52.314;8.910;2023-05-07T14:06:41;17.70;99.90
30308;DHT22;17114;52.314;8.910;2023-05-07T14:09:09;17.70;99.90
30308;DHT22;17114;52.314;8.910;2023-05-07T14:11:39;17.70;99.90
30308;DHT22;17114;52.314;8.910;2023-05-07T14:14:06;17.70;99.90
30308;DHT22;17114;52.314;8.910;2023-05-07T14:16:33;17.70;99.90
30308;DHT22;17114;52.314;8.910;2023-05-07T14:19:00;17.50;99.90
30308;DHT22;17114;52.314;8.910;2023-05-07T14:21:28;17.30;99.90
30308;DHT22;17114;52.314;8.910;2023-05-07T14:23:55;17.20;99.90
30308;DHT22;17114;52.314;8.910;2023-05-07T14:26:23;17.30;99.90
30308;DHT22;17114;52.314;8.910;2023-05-07T14:28:51;17.40;99.90
30308;DHT22;17114;52.314;8.910;2023-05-07T14:31:18;17.40;99.90
30308;DHT22;17114;52.314;8.910;2023-05-07T14:33:45;17.40;99.90
30308;DHT22;17114;52.314;8.910;2023-05-07T14:36:12;17.30;99.90
30308;DHT22;17114;52.314;8.910;2023-05-07T14:38:39;17.40;99.90
30308;DHT22;17114;52.314;8.910;2023-05-07T14:41:06;17.50;99.90
30308;DHT22;17114;52.314;8.910;2023-05-07T14:43:33;17.50;99.90
30308;DHT22;17114;52.314;8.910;2023-05-07T14:46:00;17.50;99.90
30308;DHT22;17114;52.314;8.910;2023-05-07T14:48:28;17.30;99.90
30308;DHT22;17114;52.314;8.910;2023-05-07T14:50:55;17.30;99.90
30308;DHT22;17114;52.314;8.910;2023-05-07T14:53:23;17.30;99.90
30308;DHT22;17114;52.314;8.910;2023-05-07T14:58:19;17.00;99.90
30308;DHT22;17114;52.314;8.910;2023-05-07T15:00:47;16.90;99.90
30308;DHT22;17114;52.314;8.910;2023-05-07T15:03:14;16.80;99.90
30308;DHT22;17114;52.314;8.910;2023-05-07T15:05:41;16.80;99.90
30308;DHT22;17114;52.314;8.910;2023-05-07T15:08:09;16.80;99.90
30308;DHT22;17114;52.314;8.910;2023-05-07T15:10:38;16.70;99.90
30308;DHT22;17114;52.314;8.910;2023-05-07T15:13:11;16.50;99.90
30308;DHT22;17114;52.314;8.910;2023-05-07T15:15:42;16.40;99.90
30308;DHT22;17114;52.314;8.910;2023-05-07T15:18:13;16.40;99.90
30308;DHT22;17114;52.314;8.910;2023-05-07T15:20:41;16.30;99.90
30308;DHT22;17114;52.314;8.910;2023-05-07T15:23:09;16.30;99.90
30308;DHT22;17114;52.314;8.910;2023-05-07T15:25:44;16.30;99.90
30308;DHT22;17114;52.314;8.910;2023-05-07T15:28:16;16.30;99.90
30308;DHT22;17114;52.314;8.910;2023-05-07T15:30:44;16.30;99.90
30308;DHT22;17114;52.314;8.910;2023-05-07T15:33:11;16.30;99.90
30308;DHT22;17114;52.314;8.910;2023-05-07T15:35:40;16.30;99.90
30308;DHT22;17114;52.314;8.910;2023-05-07T15:38:10;16.50;99.90
30308;DHT22;17114;52.314;8.910;2023-05-07T15:40:41;16.60;99.90
30308;DHT22;17114;52.314;8.910;2023-05-07T15:43:09;16.40;99.90
30308;DHT22;17114;52.314;8.910;2023-05-07T15:45:41;16.40;99.90
30308;DHT22;17114;52.314;8.910;2023-05-07T15:48:10;16.50;99.90
30308;DHT22;17114;52.314;8.910;2023-05-07T15:50:38;16.50;99.90
30308;DHT22;17114;52.314;8.910;2023-05-07T15:53:05;16.30;99.90
30308;DHT22;17114;52.314;8.910;2023-05-07T15:55:32;16.30;99.90